sensor_id;sensor_type;location;lat;lon;timestamp;P1;durP1;ratioP1;P2;durP2;ratioP2
71162;SDS011;58858;50.948;6.566;2023-05-07T00:00:40;7.65;;;5.50;;
71162;SDS011;58858;50.948;6.566;2023-05-07T00:10:41;8.30;;;6.15;;
71162;SDS011;58858;50.948;6.566;2023-05-07T00:20:42;8.60;;;6.50;;
71162;SDS011;58858;50.948;6.566;2023-05-07T00:30:44;7.35;;;6.25;;
71162;SDS011;58858;50.948;6.566;2023-05-07T00:40:45;7.57;;;6.28;;
71162;SDS011;58858;50.948;6.566;2023-05-07T00:50:46;7.47;;;6.15;;
71162;SDS011;58858;50.948;6.566;2023-05-07T01:00:48;7.43;;;5.53;;
71162;SDS011;58858;50.948;6.566;2023-05-07T01:10:49;11.52;;;6.70;;
71162;SDS011;58858;50.948;6.566;2023-05-07T01:20:51;9.65;;;6.60;;
71162;SDS011;58858;50.948;6.566;2023-05-07T01:30:53;10.23;;;7.40;;
71162;SDS011;58858;50.948;6.566;2023-05-07T01:40:56;15.80;;;11.00;;
71162;SDS011;58858;50.948;6.566;2023-05-07T01:50:58;12.73;;;8.43;;
71162;SDS011;58858;50.948;6.566;2023-05-07T02:00:59;15.75;;;11.27;;
71162;SDS011;58858;50.948;6.566;2023-05-07T02:11:01;26.00;;;17.13;;
71162;SDS011;58858;50.948;6.566;2023-05-07T02:21:04;24.88;;;17.45;;
71162;SDS011;58858;50.948;6.566;2023-05-07T02:31:05;23.15;;;17.05;;
71162;SDS011;58858;50.948;6.566;2023-05-07T02:41:07;23.33;;;15.90;;
71162;SDS011;58858;50.948;6.566;2023-05-07T02:51:08;24.05;;;15.65;;
71162;SDS011;58858;50.948;6.566;2023-05-07T03:01:11;26.90;;;16.98;;
71162;SDS011;58858;50.948;6.566;2023-05-07T03:11:22;19.15;;;13.40;;
71162;SDS011;58858;50.948;6.566;2023-05-07T03:21:23;24.40;;;16.65;;
71162;SDS011;58858;50.948;6.566;2023-05-07T03:31:25;17.75;;;12.65;;
71162;SDS011;58858;50.948;6.566;2023-05-07T03:41:27;24.08;;;16.40;;
71162;SDS011;58858;50.948;6.566;2023-05-07T03:51:29;22.05;;;14.30;;
71162;SDS011;58858;50.948;6.566;2023-05-07T04:01:30;23.67;;;15.18;;
71162;SDS011;58858;50.948;6.566;2023-05-07T04:11:32;20.15;;;13.10;;
71162;SDS011;58858;50.948;6.566;2023-05-07T04:21:33;23.42;;;14.98;;
71162;SDS011;58858;50.948;6.566;2023-05-07T04:31:34;20.75;;;13.27;;
71162;SDS011;58858;50.948;6.566;2023-05-07T04:41:35;20.73;;;14.32;;
71162;SDS011;58858;50.948;6.566;2023-05-07T04:51:38;17.02;;;12.52;;
71162;SDS011;58858;50.948;6.566;2023-05-07T05:01:40;19.52;;;14.02;;
71162;SDS011;58858;50.948;6.566;2023-05-07T05:11:42;15.20;;;11.75;;
71162;SDS011;58858;50.948;6.566;2023-05-07T05:21:43;11.75;;;8.77;;
71162;SDS011;58858;50.948;6.566;2023-05-07T05:31:45;12.23;;;8.25;;
71162;SDS011;58858;50.948;6.566;2023-05-07T05:41:46;13.20;;;9.23;;
71162;SDS011;58858;50.948;6.566;2023-05-07T05:51:48;9.80;;;6.43;;
71162;SDS011;58858;50.948;6.566;2023-05-07T06:01:51;10.45;;;7.20;;
71162;SDS011;58858;50.948;6.566;2023-05-07T06:11:52;7.60;;;5.88;;
71162;SDS011;58858;50.948;6.566;2023-05-07T06:21:53;6.43;;;4.90;;
71162;SDS011;58858;50.948;6.566;2023-05-07T06:32:05;8.03;;;4.07;;
71162;SDS011;58858;50.948;6.566;2023-05-07T06:42:07;6.30;;;4.25;;
71162;SDS011;58858;50.948;6.566;2023-05-07T06:52:15;6.88;;;5.20;;
71162;SDS011;58858;50.948;6.566;2023-05-07T07:02:16;8.35;;;4.90;;
71162;SDS011;58858;50.948;6.566;2023-05-07T07:12:18;6.35;;;3.88;;
71162;SDS011;58858;50.948;6.566;2023-05-07T07:22:19;4.97;;;4.15;;
71162;SDS011;58858;50.948;6.566;2023-05-07T07:32:21;5.68;;;3.47;;
71162;SDS011;58858;50.948;6.566;2023-05-07T07:42:22;5.65;;;3.78;;
71162;SDS011;58858;50.948;6.566;2023-05-07T07:52:23;21.38;;;4.53;;
71162;SDS011;58858;50.948;6.566;2023-05-07T08:02:25;15.75;;;4.05;;
71162;SDS011;58858;50.948;6.566;2023-05-07T08:12:29;19.67;;;3.90;;
71162;SDS011;58858;50.948;6.566;2023-05-07T08:22:30;140.18;;;8.60;;
71162;SDS011;58858;50.948;6.566;2023-05-07T08:32:32;523.92;;;22.67;;
71162;SDS011;58858;50.948;6.566;2023-05-07T08:42:35;229.50;;;11.88;;
71162;SDS011;58858;50.948;6.566;2023-05-07T08:52:38;1664.53;;;66.53;;
71162;SDS011;58858;50.948;6.566;2023-05-07T09:02:40;1999.90;;;107.60;;
71162;SDS011;58858;50.948;6.566;2023-05-07T09:12:43;1889.10;;;83.93;;
71162;SDS011;58858;50.948;6.566;2023-05-07T09:22:46;1999.90;;;163.07;;
71162;SDS011;58858;50.948;6.566;2023-05-07T09:32:50;1999.90;;;173.48;;
71162;SDS011;58858;50.948;6.566;2023-05-07T09:43:01;1999.90;;;179.63;;
71162;SDS011;58858;50.948;6.566;2023-05-07T09:53:09;1999.90;;;153.48;;
71162;SDS011;58858;50.948;6.566;2023-05-07T10:03:11;1999.90;;;169.38;;
71162;SDS011;58858;50.948;6.566;2023-05-07T10:13:36;1999.90;;;197.05;;
71162;SDS011;58858;50.948;6.566;2023-05-07T10:23:39;1999.90;;;181.33;;
71162;SDS011;58858;50.948;6.566;2023-05-07T10:33:41;1999.90;;;215.00;;
71162;SDS011;58858;50.948;6.566;2023-05-07T10:43:44;1999.90;;;207.30;;
71162;SDS011;58858;50.948;6.566;2023-05-07T11:04:19;1999.90;;;168.15;;
71162;SDS011;58858;50.948;6.566;2023-05-07T11:24:53;1999.90;;;125.85;;
71162;SDS011;58858;50.948;6.566;2023-05-07T11:34:55;1999.90;;;101.45;;
71162;SDS011;58858;50.948;6.566;2023-05-07T11:44:59;1999.90;;;137.60;;
71162;SDS011;58858;50.948;6.566;2023-05-07T11:55:01;1999.90;;;133.50;;
71162;SDS011;58858;50.948;6.566;2023-05-07T12:05:04;1999.90;;;114.13;;
71162;SDS011;58858;50.948;6.566;2023-05-07T12:15:05;1999.90;;;106.43;;
71162;SDS011;58858;50.948;6.566;2023-05-07T12:25:06;1999.90;;;115.78;;
71162;SDS011;58858;50.948;6.566;2023-05-07T12:45:28;1999.90;;;257.15;;
71162;SDS011;58858;50.948;6.566;2023-05-07T12:55:48;1999.90;;;98.43;;
71162;SDS011;58858;50.948;6.566;2023-05-07T13:05:57;1999.90;;;99.97;;
71162;SDS011;58858;50.948;6.566;2023-05-07T13:16:04;1999.90;;;84.05;;
71162;SDS011;58858;50.948;6.566;2023-05-07T13:36:31;1122.18;;;42.42;;
71162;SDS011;58858;50.948;6.566;2023-05-07T13:46:43;459.67;;;19.05;;
71162;SDS011;58858;50.948;6.566;2023-05-07T13:56:44;340.55;;;13.65;;
71162;SDS011;58858;50.948;6.566;2023-05-07T14:06:45;557.90;;;21.88;;
71162;SDS011;58858;50.948;6.566;2023-05-07T14:16:47;1150.63;;;43.63;;
71162;SDS011;58858;50.948;6.566;2023-05-07T14:26:48;917.70;;;38.30;;
71162;SDS011;58858;50.948;6.566;2023-05-07T14:36:49;474.65;;;22.05;;
71162;SDS011;58858;50.948;6.566;2023-05-07T14:46:50;998.95;;;42.13;;
71162;SDS011;58858;50.948;6.566;2023-05-07T14:56:51;826.40;;;34.95;;
71162;SDS011;58858;50.948;6.566;2023-05-07T15:06:52;1221.28;;;53.70;;
71162;SDS011;58858;50.948;6.566;2023-05-07T15:16:56;687.67;;;28.65;;
71162;SDS011;58858;50.948;6.566;2023-05-07T15:26:57;1013.50;;;42.00;;
71162;SDS011;58858;50.948;6.566;2023-05-07T15:36:58;558.40;;;23.95;;
71162;SDS011;58858;50.948;6.566;2023-05-07T15:46:59;1289.90;;;52.28;;
71162;SDS011;58858;50.948;6.566;2023-05-07T15:57:01;854.30;;;36.05;;
71162;SDS011;58858;50.948;6.566;2023-05-07T16:07:03;533.38;;;23.27;;
71162;SDS011;58858;50.948;6.566;2023-05-07T16:17:05;164.32;;;8.60;;
71162;SDS011;58858;50.948;6.566;2023-05-07T16:27:06;189.52;;;10.23;;
71162;SDS011;58858;50.948;6.566;2023-05-07T16:37:07;126.55;;;8.25;;
71162;SDS011;58858;50.948;6.566;2023-05-07T16:47:08;130.30;;;7.18;;
71162;SDS011;58858;50.948;6.566;2023-05-07T16:57:09;16.98;;;4.38;;
71162;SDS011;58858;50.948;6.566;2023-05-07T17:07:10;65.60;;;5.28;;
71162;SDS011;58858;50.948;6.566;2023-05-07T17:17:11;37.08;;;5.30;;
71162;SDS011;58858;50.948;6.566;2023-05-07T17:27:13;60.67;;;6.63;;
71162;SDS011;58858;50.948;6.566;2023-05-07T17:37:14;16.42;;;3.92;;
71162;SDS011;58858;50.948;6.566;2023-05-07T17:47:15;11.65;;;4.03;;
71162;SDS011;58858;50.948;6.566;2023-05-07T17:57:16;10.43;;;3.35;;
71162;SDS011;58858;50.948;6.566;2023-05-07T18:07:17;19.65;;;4.32;;
71162;SDS011;58858;50.948;6.566;2023-05-07T18:17:18;48.22;;;6.18;;
71162;SDS011;58858;50.948;6.566;2023-05-07T18:27:23;8.40;;;4.20;;
71162;SDS011;58858;50.948;6.566;2023-05-07T18:37:24;14.35;;;3.83;;
71162;SDS011;58858;50.948;6.566;2023-05-07T18:47:25;7.30;;;3.67;;
71162;SDS011;58858;50.948;6.566;2023-05-07T18:57:26;15.70;;;4.13;;
71162;SDS011;58858;50.948;6.566;2023-05-07T19:07:29;6.03;;;3.25;;
71162;SDS011;58858;50.948;6.566;2023-05-07T19:17:30;6.50;;;3.85;;
71162;SDS011;58858;50.948;6.566;2023-05-07T19:27:31;5.18;;;3.35;;
71162;SDS011;58858;50.948;6.566;2023-05-07T19:37:32;8.43;;;3.97;;
71162;SDS011;58858;50.948;6.566;2023-05-07T19:47:33;11.27;;;3.95;;
71162;SDS011;58858;50.948;6.566;2023-05-07T19:57:34;7.93;;;4.22;;
71162;SDS011;58858;50.948;6.566;2023-05-07T20:07:35;5.63;;;3.92;;
71162;SDS011;58858;50.948;6.566;2023-05-07T20:17:36;4.75;;;3.72;;
71162;SDS011;58858;50.948;6.566;2023-05-07T20:27:38;16.25;;;4.18;;
71162;SDS011;58858;50.948;6.566;2023-05-07T20:37:39;7.72;;;4.28;;
71162;SDS011;58858;50.948;6.566;2023-05-07T20:47:40;6.15;;;4.82;;
71162;SDS011;58858;50.948;6.566;2023-05-07T20:57:41;8.07;;;6.72;;
71162;SDS011;58858;50.948;6.566;2023-05-07T21:07:42;12.82;;;6.40;;
71162;SDS011;58858;50.948;6.566;2023-05-07T21:17:43;7.40;;;5.60;;
71162;SDS011;58858;50.948;6.566;2023-05-07T21:27:44;6.32;;;5.15;;
71162;SDS011;58858;50.948;6.566;2023-05-07T21:37:46;9.00;;;6.13;;
71162;SDS011;58858;50.948;6.566;2023-05-07T21:47:47;8.23;;;5.68;;
71162;SDS011;58858;50.948;6.566;2023-05-07T21:57:49;8.85;;;6.30;;
71162;SDS011;58858;50.948;6.566;2023-05-07T22:07:54;12.87;;;8.50;;
71162;SDS011;58858;50.948;6.566;2023-05-07T22:17:57;9.32;;;7.93;;
71162;SDS011;58858;50.948;6.566;2023-05-07T22:27:59;8.85;;;7.07;;
71162;SDS011;58858;50.948;6.566;2023-05-07T22:38:00;10.70;;;7.93;;
71162;SDS011;58858;50.948;6.566;2023-05-07T22:48:01;12.93;;;7.63;;
71162;SDS011;58858;50.948;6.566;2023-05-07T22:58:03;11.82;;;9.57;;
71162;SDS011;58858;50.948;6.566;2023-05-07T23:08:04;9.48;;;7.22;;
71162;SDS011;58858;50.948;6.566;2023-05-07T23:18:05;7.63;;;6.72;;
71162;SDS011;58858;50.948;6.566;2023-05-07T23:28:06;10.35;;;8.43;;
71162;SDS011;58858;50.948;6.566;2023-05-07T23:38:07;11.18;;;7.43;;
71162;SDS011;58858;50.948;6.566;2023-05-07T23:48:09;13.57;;;9.35;;
71162;SDS011;58858;50.948;6.566;2023-05-07T23:58:10;10.38;;;8.45;;
